Details From HECA - Cairo Intl
To HEGN - Hurghada Intl
Flight Number -
Tags generated
Created
Modified
Stats Distance 235 nm / 436 km
Max Altitude 24,900 ft / 7,590 m
Waypoints 4
Social Downloads 1
Likes 0
Share

Download

Looking for another format? Having issues loading an existing format? Contact us
Advertisement - Login to hide

Notes

Basic altitude profile: - Ascent Rate: 2500ft/min - Ascent Speed: 250kts - Cruise Altitude: 35000ft - Cruise Speed: 420kts - Descent Rate: 1500ft/min - Descent Speed: 250kts Options: - Use NATs: yes - Use PACOTS: yes - Use low airways: yes - Use high airways: yes

Route

HECA RASMI A727 SEMRU HEGN

ID Type Via Altitude (ft/m) Position (lat/lon) Dist (leg/tot) Name
O HECA APT - 0 / 0 30.11140 / 31.41390 - / 0 nm Cairo Intl
RASMI FIX - 24,900 / 7,590 28.98360 / 31.75170 69 / 69 nm
SEMRU FIX A727 (AWY-HI) 22,700 / 6,919 28.03330 / 32.05170 59 / 129 nm
O HEGN APT - 0 / 0 27.17750 / 33.79630 106 / 235 nm Hurghada Intl

Altitude Profile

Advertisement - Login to hide

Weather


0- 5 10 15 20 25 30 35+ Temperature / °C

Clouds and Precipitation
Forecast for 2024-04-15 18:00 UTC. Updated 2 months ago

Ground ~20,000 ft ~40,000 ft Winds

HECA

Details ICAO HECA (CAI)
Name Cairo Intl
Region Egypt
Timezone Africa/Cairo (UTC+2.0)
Stats Elevation 466 ft / 142 m (AMSL)
Location 30.111400° 31.413900°
Runways 3
Magnetic Variation 4.961° E

METAR

HECA 221330Z 30010KT CAVOK 36/14 Q1004 NOSIG

Decode

TAF

TAF HECA 221100Z 2212/2318 31010KT 9999 FEW025= TAF HESX 221100Z 2212/2318 34010KT 9999 FEW025

Decode

Departure Runways

ID Width Length Bearing (true/mag) Surface Threshold Overrun Markings Lighting
05C 197 ft / 60 m 13,132 ft / 4,003 m 49.04° / 44.08° ASPHALT 0 ft / 0 m 217 ft / 66 m PREC-APP CENTERLINE EDGE THRESHOLD ALSF-II TDZ REIL-OMNI
05L 197 ft / 60 m 10,840 ft / 3,304 m 49.29° / 44.33° ASPHALT 0 ft / 0 m 184 ft / 56 m PREC-APP CENTERLINE EDGE THRESHOLD ALSF-I REIL-OMNI
05R 197 ft / 60 m 13,135 ft / 4,004 m 49.04° / 44.08° ASPHALT 0 ft / 0 m 217 ft / 66 m PREC-APP CENTERLINE EDGE THRESHOLD ALSF-II TDZ REIL-OMNI
23C 197 ft / 60 m 13,132 ft / 4,003 m 229.05° / 224.09° ASPHALT 0 ft / 0 m 226 ft / 69 m PREC-APP CENTERLINE EDGE THRESHOLD ALSF-II TDZ REIL-OMNI
23L 197 ft / 60 m 13,135 ft / 4,004 m 229.05° / 224.09° ASPHALT 0 ft / 0 m 226 ft / 69 m PREC-APP CENTERLINE EDGE THRESHOLD ALSF-II TDZ REIL-OMNI
23R 197 ft / 60 m 10,840 ft / 3,304 m 229.30° / 224.34° ASPHALT 0 ft / 0 m 184 ft / 56 m PREC-APP CENTERLINE EDGE THRESHOLD ALSF-I REIL-OMNI

HEGN

Details ICAO HEGN (HRG)
Name Hurghada Intl
Region Egypt
Timezone Africa/Cairo (UTC+2.0)
Stats Elevation 109 ft / 33 m (AMSL)
Location 27.177500° 33.796300°
Runways 2
Magnetic Variation 4.726° E

METAR

HEGN 221300Z 01012KT CAVOK 41/08 Q1001 NOSIG

Decode

TAF

TAF HEGN 221100Z 2212/2318 34012KT CAVOK

Decode

Destination Runways

ID Width Length Bearing (true/mag) Surface Threshold Overrun Markings Lighting
16L 148 ft / 45 m 13,171 ft / 4,015 m 165.30° / 160.57° ASPHALT 991 ft / 302 m 0 ft / 0 m PREC-APP CENTERLINE EDGE THRESHOLD ALSF-I
16R 197 ft / 60 m 13,168 ft / 4,014 m 165.26° / 160.53° ASPHALT 0 ft / 0 m 394 ft / 120 m PREC-APP CENTERLINE EDGE THRESHOLD ALSF-I
34L 197 ft / 60 m 13,168 ft / 4,014 m 345.26° / 340.54° ASPHALT 0 ft / 0 m 394 ft / 120 m PREC-APP CENTERLINE EDGE THRESHOLD ALSF-I
34R 148 ft / 45 m 13,171 ft / 4,015 m 345.30° / 340.58° ASPHALT 0 ft / 0 m 200 ft / 61 m PREC-APP CENTERLINE EDGE THRESHOLD ALSF-I

Approach Navaids

Runway Type Ident Frequency Range Bearing (true/mag) Slope Elevation
34R LOC-ILS HIL 110.30 MHz 18 nm / 33 km 345.28° / 340.55 ° - 52 ft / 16 m (AMSL)
34R DME HIL 110.30 MHz 18 nm / 33 km - - 30 ft / 9 m (AMSL)
34R GS HIL 110.30 MHz 10 nm / 19 km 345.28° / 340.55 ° 3.00° 52 ft / 16 m (AMSL)

Popular Alternatives